This is the latest recevied weather packets stored in our database for station/object EA5CBT-13. If no packets are shown the sender has not sent any weather packets the latest 10 day(s).
| Time | Temp. | Humidity | Pressure | Rain* | Wind** | Luminosity | Snow |
|---|---|---|---|---|---|---|---|
| 1777860921 | 17.78° C | 84% | 1010.3 hPa | 0 mm | - | - | - |
| 1777857945 | 17.78° C | 82% | 1010.6 hPa | 0 mm | - | - | - |
| 1777848347 | 18.89° C | 83% | 1011.2 hPa | 0 mm | - | - | - |
| 1777846525 | 18.89° C | 82% | 1011.2 hPa | 0 mm | - | - | - |
| 1777838138 | 18.89° C | 82% | 1010.8 hPa | 0 mm | - | - | - |
| 1777837570 | 18.89° C | 82% | 1010.7 hPa | 0 mm | - | - | - |
| 1777829750 | 20.56° C | 74% | 1009 hPa | 0 mm | - | - | - |
| 1777827927 | 21.67° C | 71% | 1008.9 hPa | 0 mm | - | - | - |
| 1777821970 | 22.78° C | 65% | 1009.7 hPa | 0 mm | - | - | - |
| 1777813522 | 23.33° C | 62% | 1011 hPa | 0 mm | - | - | - |
| 1777811759 | 23.33° C | 62% | 1011.3 hPa | 0 mm | - | - | - |
| 1777810544 | 22.78° C | 63% | 1011.5 hPa | 0 mm | - | - | - |
| 1777805744 | 23.33° C | 61% | 1012.1 hPa | 0 mm | - | - | - |
| 1777802160 | 22.78° C | 62% | 1012.7 hPa | 0 mm | - | - | - |
| 1777797987 | 20° C | 74% | 1013.2 hPa | 0 mm | - | - | - |
| 1777797360 | 20° C | 78% | 1013.2 hPa | 0 mm | - | - | - |
| 1777796753 | 18.89° C | 80% | 1013.1 hPa | 0 mm | - | - | - |
| 1777795537 | 18.33° C | 80% | 1013.1 hPa | 0 mm | - | - | - |
| 1777794951 | 18.33° C | 79% | 1013.3 hPa | 0 mm | - | - | - |
| 1777793167 | 18.33° C | 79% | 1013.3 hPa | 0 mm | - | - | - |
| 1777790758 | 18.33° C | 79% | 1012.9 hPa | 0 mm | - | - | - |
| 1777787760 | 17.78° C | 81% | 1012.7 hPa | 0 mm | - | - | - |
| 1777784117 | 17.22° C | 87% | 1012.4 hPa | 0 mm | - | - | - |
| 1777782354 | 17.22° C | 86% | 1012.1 hPa | 0 mm | - | - | - |
| 1777778770 | 17.22° C | 84% | 1011.5 hPa | 0 mm | - | - | - |
* Rain latest hour (hover to see other rain measurements)
** Current wind speed in m/s (hover to see current wind gust speed)